Time;durP1;ratioP1;P1;durP2;ratioP2;P2;SDS_P1;SDS_P2;PMS_P1;PMS_P2;Temp;Humidity;BMP_temperature;BMP_pressure;BME280_temperature;BME280_humidity;BME280_pressure;Samples;Min_cycle;Max_cycle;Signal;HPM_P1;HPM_P2
2021/12/15 00:02:30;;;;;;;85.60;40.28;;;;;;;8.35;100.00;103629.38;10544102;28;20044;-59
2021/12/15 00:07:34;;;;;;;66.97;34.90;;;;;;;8.48;100.00;103641.56;10543834;28;20527;-59
2021/12/15 00:12:36;;;;;;;78.57;39.08;;;;;;;8.26;100.00;103627.66;10543527;28;20055;-60
2021/12/15 00:17:39;;;;;;;72.57;39.85;;;;;;;8.27;100.00;103607.66;10543575;28;20070;-59
2021/12/15 00:22:44;;;;;;;63.42;34.25;;;;;;;8.54;100.00;103623.28;10543243;28;20048;-58
2021/12/15 00:27:46;;;;;;;82.18;40.28;;;;;;;8.35;100.00;103613.72;10543140;28;20055;-58
2021/12/15 00:32:49;;;;;;;86.07;43.55;;;;;;;8.39;100.00;103618.06;10543490;28;20044;-58
2021/12/15 00:37:52;;;;;;;88.00;43.58;;;;;;;8.43;100.00;103627.66;10542558;28;20044;-58
2021/12/15 00:42:55;;;;;;;81.13;42.17;;;;;;;8.38;100.00;103608.50;10542317;28;20043;-60
2021/12/15 00:47:58;;;;;;;76.75;40.60;;;;;;;8.42;100.00;103619.78;10541150;28;20416;-59
2021/12/15 00:53:02;;;;;;;106.43;45.55;;;;;;;8.36;100.00;103605.03;10540610;28;20411;-61
2021/12/15 00:58:06;;;;;;;95.30;43.42;;;;;;;8.47;100.00;103610.22;10541144;28;20059;-59
2021/12/15 01:03:09;;;;;;;79.20;38.42;;;;;;;8.42;100.00;103597.16;10541563;28;20048;-60
2021/12/15 01:08:15;;;;;;;99.28;44.15;;;;;;;8.34;100.00;103583.28;10541261;28;20496;-60
2021/12/15 01:23:59;;;;;;;81.55;39.58;;;;;;;8.38;100.00;103590.22;10540681;28;20763;-57
2021/12/15 01:29:02;;;;;;;85.18;41.53;;;;;;;8.38;100.00;103600.66;10541102;28;20048;-58
2021/12/15 01:34:05;;;;;;;81.47;39.75;;;;;;;8.50;100.00;103595.41;10540405;28;20055;-58
2021/12/15 01:39:07;;;;;;;94.13;40.08;;;;;;;8.40;100.00;103585.00;10540538;28;20044;-60
2021/12/15 01:49:19;;;;;;;81.38;41.15;;;;;;;8.50;100.00;103607.63;10539935;28;20131;-58
2021/12/15 01:54:23;;;;;;;85.07;39.55;;;;;;;8.49;100.00;103603.25;10539831;28;20052;-59
2021/12/15 01:59:27;;;;;;;99.60;45.45;;;;;;;8.31;100.00;103596.34;10539835;28;20495;-61
2021/12/15 02:04:29;;;;;;;109.53;45.45;;;;;;;8.43;100.00;103593.72;10539440;28;20044;-57
2021/12/15 02:14:43;;;;;;;93.75;41.50;;;;;;;8.51;100.00;103611.97;10539970;28;20056;-58
2021/12/15 02:19:46;;;;;;;98.90;45.08;;;;;;;8.36;100.00;103589.38;10540100;28;20451;-59
2021/12/15 02:24:51;;;;;;;77.63;38.33;;;;;;;8.57;100.00;103600.63;10537981;28;20404;-59
2021/12/15 02:29:59;;;;;;;104.35;43.53;;;;;;;8.34;100.00;103591.97;10538428;28;20051;-60
2021/12/15 02:40:23;;;;;;;81.67;39.27;;;;;;;8.38;100.00;103598.06;10539593;28;20040;-58
2021/12/15 02:45:25;;;;;;;94.22;42.90;;;;;;;8.40;100.00;103598.91;10538584;28;20149;-58
2021/12/15 02:50:30;;;;;;;65.90;36.17;;;;;;;8.53;100.00;103598.03;10538954;28;20071;-59
2021/12/15 02:55:32;;;;;;;87.97;40.30;;;;;;;8.28;100.00;103604.19;10538656;28;20480;-60
2021/12/15 03:00:48;;;;;;;80.28;38.42;;;;;;;8.36;100.00;103595.44;10543922;28;20399;-58
2021/12/15 03:06:00;;;;;;;77.20;35.15;;;;;;;8.37;100.00;103583.25;10546210;28;20044;-59
2021/12/15 03:16:24;;;;;;;87.78;41.95;;;;;;;8.34;100.00;103581.53;10545773;28;20400;-57
2021/12/15 03:21:27;;;;;;;70.25;35.53;;;;;;;8.52;100.00;103609.38;10545546;28;20051;-59
2021/12/15 03:26:40;;;;;;;84.28;38.10;;;;;;;8.37;100.00;103575.41;10545774;28;20056;-59
2021/12/15 03:37:09;;;;;;;87.43;39.45;;;;;;;8.37;100.00;103625.91;10545213;28;20075;-59
2021/12/15 03:42:16;;;;;;;89.25;40.63;;;;;;;8.22;100.00;103619.84;10545186;28;20055;-57
2021/12/15 03:47:25;;;;;;;76.18;37.17;;;;;;;8.32;100.00;103656.38;10544897;28;20064;-61
2021/12/15 03:52:27;;;;;;;95.22;40.88;;;;;;;8.26;100.00;103673.81;10544608;28;20055;-60
2021/12/15 03:57:30;;;;;;;80.07;35.92;;;;;;;8.32;100.00;103673.75;10544750;28;20059;-59
2021/12/15 04:02:33;;;;;;;69.95;34.85;;;;;;;8.36;100.00;103683.34;10544065;28;20048;-58
2021/12/15 04:07:38;;;;;;;78.25;34.10;;;;;;;8.41;100.00;103699.00;10544588;28;20044;-59
2021/12/15 04:12:42;;;;;;;96.43;40.03;;;;;;;8.48;100.00;103703.38;10542863;28;20411;-58
2021/12/15 04:17:46;;;;;;;97.70;40.17;;;;;;;8.47;100.00;103691.19;10544033;28;20052;-60
2021/12/15 04:22:49;;;;;;;84.70;37.47;;;;;;;8.32;100.00;103702.47;10543020;28;20048;-59
2021/12/15 04:28:05;;;;;;;82.68;36.80;;;;;;;8.33;100.00;103704.22;10542819;28;20048;-58
2021/12/15 04:33:13;;;;;;;92.53;40.33;;;;;;;8.32;100.00;103725.97;10543076;28;20048;-59
2021/12/15 04:38:16;;;;;;;92.35;39.13;;;;;;;8.36;100.00;103744.25;10542562;28;20044;-59
2021/12/15 04:43:18;;;;;;;78.22;35.58;;;;;;;8.42;100.00;103779.91;10542303;28;20063;-59
2021/12/15 04:48:21;;;;;;;91.32;37.08;;;;;;;8.35;100.00;103815.63;10541900;28;20052;-58
2021/12/15 04:53:23;;;;;;;82.55;37.70;;;;;;;8.52;100.00;103851.31;10541793;28;20400;-58
2021/12/15 04:58:25;;;;;;;83.35;36.75;;;;;;;8.40;100.00;103898.28;10540908;28;20048;-59
2021/12/15 05:03:28;;;;;;;86.70;37.15;;;;;;;8.35;100.00;103927.00;10541162;28;20040;-58
2021/12/15 05:08:30;;;;;;;84.13;37.67;;;;;;;8.46;100.00;103907.03;10541741;28;20044;-59
2021/12/15 05:13:34;;;;;;;89.93;38.33;;;;;;;8.50;100.00;103908.78;10541027;28;20048;-57
2021/12/15 05:18:36;;;;;;;86.90;37.65;;;;;;;8.47;100.00;103921.84;10541443;28;20052;-59
2021/12/15 05:23:40;;;;;;;81.03;34.03;;;;;;;8.48;100.00;103922.72;10540838;28;20480;-60
2021/12/15 05:28:42;;;;;;;76.85;34.80;;;;;;;8.54;100.00;103921.00;10540977;28;20051;-57
2021/12/15 05:33:44;;;;;;;84.45;36.83;;;;;;;8.64;100.00;103948.00;10540698;28;20051;-58
2021/12/15 05:38:47;;;;;;;96.90;38.10;;;;;;;8.36;100.00;103942.66;10540807;28;20059;-59
2021/12/15 05:43:50;;;;;;;78.55;34.47;;;;;;;8.47;100.00;103924.47;10540680;28;20090;-57
2021/12/15 05:48:53;;;;;;;93.13;40.63;;;;;;;8.60;100.00;103917.50;10540508;28;20051;-56
2021/12/15 05:53:56;;;;;;;73.50;35.08;;;;;;;8.45;100.00;103920.09;10540248;28;20043;-58
2021/12/15 05:58:58;;;;;;;84.68;37.33;;;;;;;8.52;100.00;103920.13;10540224;28;20051;-58
2021/12/15 06:04:02;;;;;;;78.47;35.25;;;;;;;8.49;100.00;103934.88;10540206;28;20040;-60
2021/12/15 06:09:06;;;;;;;91.15;37.55;;;;;;;8.44;100.00;103941.84;10540044;28;20040;-58
2021/12/15 06:14:09;;;;;;;67.10;33.05;;;;;;;8.52;100.00;103959.28;10539558;28;20051;-58
2021/12/15 06:19:11;;;;;;;95.05;38.78;;;;;;;8.47;100.00;103971.47;10539895;28;20048;-58
2021/12/15 06:24:13;;;;;;;67.13;31.67;;;;;;;8.49;100.00;103955.78;10539232;28;20040;-59
2021/12/15 06:29:16;;;;;;;80.88;35.92;;;;;;;8.41;100.00;103937.47;10539387;28;20052;-57
2021/12/15 06:34:19;;;;;;;81.07;34.50;;;;;;;8.44;100.00;103942.75;10541612;28;20044;-59
2021/12/15 06:39:21;;;;;;;63.92;32.15;;;;;;;8.43;100.00;103947.94;10548567;28;20048;-58
2021/12/15 06:44:24;;;;;;;84.82;36.97;;;;;;;8.42;100.00;103946.16;10546923;28;20448;-60
2021/12/15 07:00:12;;;;;;;78.30;35.28;;;;;;;8.54;100.00;103931.44;10546732;28;20381;-57
2021/12/15 07:05:15;;;;;;;82.63;34.83;;;;;;;8.59;100.00;103941.00;10546443;28;20048;-61
2021/12/15 07:10:21;;;;;;;86.15;36.30;;;;;;;8.58;100.00;103953.19;10546303;28;20071;-59
2021/12/15 07:15:23;;;;;;;83.70;35.42;;;;;;;8.65;100.00;103959.31;10545289;28;20052;-58
2021/12/15 07:20:42;;;;;;;83.93;34.20;;;;;;;8.59;100.00;103959.28;10545917;28;20059;-60
2021/12/15 07:25:47;;;;;;;81.65;34.70;;;;;;;8.63;100.00;103948.84;10546390;28;20048;-58
2021/12/15 07:30:50;;;;;;;76.40;34.40;;;;;;;8.62;100.00;103949.69;10544737;28;20051;-59
2021/12/15 07:35:56;;;;;;;83.22;36.55;;;;;;;8.57;100.00;103938.38;10544358;28;20052;-58
2021/12/15 07:40:59;;;;;;;83.60;35.80;;;;;;;8.72;100.00;103941.03;10545332;28;20059;-60
2021/12/15 07:46:04;;;;;;;92.05;35.58;;;;;;;8.58;100.00;103937.53;10543609;28;20052;-59
2021/12/15 07:51:08;;;;;;;88.25;37.90;;;;;;;8.67;100.00;103958.41;10545116;28;20078;-59
2021/12/15 07:56:11;;;;;;;87.88;36.97;;;;;;;8.57;100.00;103943.59;10544571;28;20055;-58
2021/12/15 08:01:16;;;;;;;103.88;39.80;;;;;;;8.62;100.00;103946.22;10544620;28;20044;-59
2021/12/15 08:06:19;;;;;;;97.45;37.53;;;;;;;8.65;100.00;103975.84;10543995;28;20044;-59
2021/12/15 08:11:21;;;;;;;104.53;37.75;;;;;;;8.60;100.00;103966.25;10543132;28;20055;-60
2021/12/15 08:16:25;;;;;;;111.05;40.03;;;;;;;8.68;100.00;103967.16;10542087;28;20059;-58
2021/12/15 08:21:28;;;;;;;96.07;36.58;;;;;;;8.59;100.00;103967.13;10543320;28;20442;-59
2021/12/15 08:26:31;;;;;;;86.75;34.38;;;;;;;8.63;100.00;103966.28;10543226;28;20051;-58
2021/12/15 08:31:33;;;;;;;98.63;36.10;;;;;;;8.72;100.00;103977.59;10541806;28;20052;-58
2021/12/15 08:36:37;;;;;;;105.93;39.15;;;;;;;8.69;100.00;103989.75;10542678;28;20557;-58
2021/12/15 08:41:39;;;;;;;89.47;35.70;;;;;;;8.74;100.00;103974.97;10543180;28;20052;-58
2021/12/15 08:46:44;;;;;;;108.10;39.38;;;;;;;8.58;100.00;103979.31;10542841;28;20087;-56
2021/12/15 08:51:47;;;;;;;89.10;37.20;;;;;;;8.81;100.00;103968.91;10542328;28;20044;-59
2021/12/15 08:56:50;;;;;;;95.88;35.83;;;;;;;8.77;100.00;103971.50;10541793;28;20074;-58
2021/12/15 09:01:53;;;;;;;122.65;41.45;;;;;;;8.74;100.00;103962.81;10541804;28;20056;-57
2021/12/15 09:06:56;;;;;;;113.18;41.80;;;;;;;8.71;100.00;103973.25;10540726;28;20040;-59
2021/12/15 09:11:59;;;;;;;120.47;39.53;;;;;;;8.73;100.00;103986.31;10540217;28;20052;-58
2021/12/15 09:17:03;;;;;;;87.70;34.45;;;;;;;8.71;100.00;103964.53;10541420;28;20044;-59
2021/12/15 09:22:05;;;;;;;108.32;37.83;;;;;;;8.83;100.00;103971.53;10541137;28;20043;-58
2021/12/15 09:27:08;;;;;;;83.88;34.67;;;;;;;9.16;100.00;103993.28;10540710;28;20538;-58
2021/12/15 09:32:10;;;;;;;106.32;37.42;;;;;;;8.99;100.00;103991.53;10540296;28;20051;-58
2021/12/15 09:37:12;;;;;;;87.03;37.33;;;;;;;8.95;100.00;103988.94;10540976;28;20050;-60
2021/12/15 09:42:19;;;;;;;104.97;38.13;;;;;;;8.85;100.00;103985.44;10540251;28;20044;-58
2021/12/15 10:03:07;;;;;;;106.68;40.67;;;;;;;8.98;100.00;104015.94;10539681;28;20054;-60
2021/12/15 10:18:59;;;;;;;95.07;40.55;;;;;;;9.09;100.00;104019.44;10539354;28;20055;-59
2021/12/15 10:24:04;;;;;;;105.15;41.40;;;;;;;9.13;100.00;104007.25;10539453;28;20061;-59
2021/12/15 10:29:07;;;;;;;101.60;41.08;;;;;;;9.26;100.00;104022.06;10539893;28;20051;-59
2021/12/15 10:34:11;;;;;;;100.38;42.10;;;;;;;9.26;100.00;104011.59;10539068;28;20044;-59
2021/12/15 10:39:33;;;;;;;94.30;40.33;;;;;;;9.48;100.00;104012.44;10539785;28;20055;-59
2021/12/15 10:44:35;;;;;;;83.97;37.88;;;;;;;9.53;100.00;104030.75;10538722;28;20105;-60
2021/12/15 10:49:40;;;;;;;88.15;39.47;;;;;;;9.56;100.00;104035.97;10537228;28;20048;-60
2021/12/15 10:54:46;;;;;;;84.82;40.47;;;;;;;9.55;100.00;104029.00;10538397;28;20051;-57
2021/12/15 10:59:53;;;;;;;89.97;40.53;;;;;;;9.63;100.00;104010.66;10538477;28;20578;-58
2021/12/15 11:05:18;;;;;;;86.32;40.72;;;;;;;9.58;100.00;104010.69;10539172;28;20052;-58
2021/12/15 11:10:31;;;;;;;83.53;38.33;;;;;;;9.62;100.00;104028.13;10537204;28;20467;-60
2021/12/15 11:15:50;;;;;;;86.30;42.95;;;;;;;9.66;100.00;104014.13;10538513;28;20052;-58
2021/12/15 11:20:56;;;;;;;71.40;36.75;;;;;;;9.86;100.00;104014.09;10542881;28;20168;-58
2021/12/15 11:26:10;;;;;;;78.90;38.53;;;;;;;9.80;100.00;104008.88;10546005;28;20048;-58
2021/12/15 11:31:18;;;;;;;73.38;36.10;;;;;;;9.97;100.00;103998.38;10546343;28;20071;-59
2021/12/15 11:36:26;;;;;;;78.03;38.13;;;;;;;9.82;100.00;103988.81;10545914;28;20044;-58
2021/12/15 11:41:36;;;;;;;79.85;39.72;;;;;;;9.81;100.00;103999.28;10545066;28;20058;-59
2021/12/15 11:46:46;;;;;;;75.90;36.63;;;;;;;9.73;100.00;103987.97;10545055;28;20065;-59
2021/12/15 11:51:52;;;;;;;62.15;34.00;;;;;;;9.76;100.00;103974.88;10544741;28;20052;-58
2021/12/15 11:56:58;;;;;;;60.20;33.72;;;;;;;9.86;100.00;103980.06;10545485;28;20055;-58
2021/12/15 12:02:01;;;;;;;71.13;36.95;;;;;;;10.00;100.00;103987.00;10544034;28;20400;-59
2021/12/15 12:07:24;;;;;;;62.03;35.45;;;;;;;10.05;100.00;103998.31;10543355;28;20483;-57
2021/12/15 12:12:33;;;;;;;62.83;33.97;;;;;;;9.99;100.00;103978.28;10543433;28;20400;-59
2021/12/15 12:17:37;;;;;;;60.50;36.05;;;;;;;10.18;100.00;103978.19;10541780;28;20488;-59
2021/12/15 12:22:43;;;;;;;63.78;36.85;;;;;;;10.26;100.00;103979.03;10543775;28;20052;-58
2021/12/15 12:27:47;;;;;;;61.50;35.03;;;;;;;10.22;100.00;103956.34;10541828;28;20530;-58
2021/12/15 12:32:52;;;;;;;61.72;34.40;;;;;;;10.40;100.00;103965.88;10542241;28;20044;-59
2021/12/15 12:37:57;;;;;;;52.95;33.22;;;;;;;10.47;100.00;103954.47;10543377;28;20059;-59
2021/12/15 12:43:00;;;;;;;61.53;36.83;;;;;;;10.34;100.00;103969.44;10542861;28;20048;-58
2021/12/15 12:48:50;;;;;;;62.45;35.42;;;;;;;10.36;100.00;103951.09;10542066;28;20506;-58
2021/12/15 12:59:43;;;;;;;51.15;33.40;;;;;;;10.59;100.00;103938.69;10542422;28;20479;-59
2021/12/15 13:04:45;;;;;;;56.88;35.60;;;;;;;10.36;100.00;103906.56;10535210;28;20044;-59
2021/12/15 13:09:50;;;;;;;49.22;30.83;;;;;;;10.20;100.00;103926.69;10541819;28;20052;-58
2021/12/15 13:14:55;;;;;;;54.03;32.28;;;;;;;10.10;100.00;103911.91;10541089;28;20423;-58
2021/12/15 13:19:58;;;;;;;56.08;35.30;;;;;;;10.22;100.00;103914.44;10540685;28;20062;-58
2021/12/15 13:30:41;;;;;;;53.63;34.35;;;;;;;10.17;100.00;103924.97;10539827;28;20044;-59
2021/12/15 13:35:51;;;;;;;56.08;34.95;;;;;;;10.19;100.00;103928.44;10540067;28;20415;-59
2021/12/15 13:41:38;;;;;;;55.88;33.20;;;;;;;10.00;100.00;103922.44;10540417;28;20523;-59
2021/12/15 13:46:42;;;;;;;55.97;35.28;;;;;;;9.84;100.00;103919.00;10540181;28;20052;-58
2021/12/15 13:51:58;;;;;;;57.97;35.20;;;;;;;9.99;100.00;103922.44;10540024;28;20079;-57
2021/12/15 13:57:42;;;;;;;56.42;37.22;;;;;;;10.06;100.00;103949.47;10540348;28;20044;-57
2021/12/15 14:03:13;;;;;;;52.33;33.20;;;;;;;10.03;100.00;103958.19;10531131;28;20051;-59
2021/12/15 14:08:41;;;;;;;49.95;31.88;;;;;;;10.11;100.00;103950.31;10539654;28;20044;-58
2021/12/15 14:14:06;;;;;;;46.65;33.20;;;;;;;9.89;100.00;103937.31;10535359;28;20051;-57
2021/12/15 14:19:18;;;;;;;43.38;29.88;;;;;;;9.98;100.00;103932.03;10539643;28;20051;-58
2021/12/15 14:24:20;;;;;;;;;;;;;;;9.95;100.00;103945.16;10539974;28;20048;-59
2021/12/15 14:29:26;;;;;;;49.78;31.25;;;;;;;10.30;100.00;103949.31;10539518;28;19949;-59
2021/12/15 14:34:32;;;;;;;47.25;31.42;;;;;;;10.00;100.00;103939.88;10538985;28;20412;-58
2021/12/15 14:39:46;;;;;;;42.00;25.98;;;;;;;9.86;100.00;103939.94;10539246;28;20048;-59
2021/12/15 14:44:52;;;;;;;40.58;25.50;;;;;;;9.91;100.00;103960.88;10537770;28;20059;-58
2021/12/15 14:50:02;;;;;;;43.30;27.90;;;;;;;9.99;100.00;103962.56;10538170;28;20118;-57
2021/12/15 14:55:12;;;;;;;35.65;23.13;;;;;;;10.03;100.00;103963.44;10542063;28;20070;-61
2021/12/15 15:00:38;;;;;;;29.52;22.73;;;;;;;9.93;100.00;103977.44;10547712;28;20040;-58
2021/12/15 15:05:45;;;;;;;34.78;22.83;;;;;;;9.77;100.00;103982.72;10546578;28;20047;-58
2021/12/15 15:10:48;;;;;;;30.88;20.65;;;;;;;9.91;100.00;103974.81;10546701;28;20128;-57
2021/12/15 15:15:55;;;;;;;29.08;20.20;;;;;;;9.86;100.00;103985.31;10545985;28;20059;-58
2021/12/15 15:21:08;;;;;;;38.03;22.73;;;;;;;9.90;100.00;104003.63;10546254;28;20048;-58
2021/12/15 15:26:13;;;;;;;33.65;22.85;;;;;;;9.72;100.00;104008.03;10544659;28;20055;-57
2021/12/15 15:31:19;;;;;;;35.08;23.38;;;;;;;9.82;100.00;104009.75;10545466;28;20048;-58
2021/12/15 15:36:27;;;;;;;37.75;25.10;;;;;;;9.79;100.00;103991.44;10545459;28;20084;-59
2021/12/15 15:41:35;;;;;;;35.97;23.27;;;;;;;9.88;100.00;104000.13;10544041;28;20402;-59
2021/12/15 15:46:43;;;;;;;37.38;22.83;;;;;;;9.78;100.00;104000.16;10545063;28;20051;-59
2021/12/15 15:51:47;;;;;;;38.78;26.20;;;;;;;9.61;100.00;103991.50;10545397;28;20112;-59
2021/12/15 15:56:50;;;;;;;37.97;25.05;;;;;;;9.94;100.00;104014.06;10544773;28;20052;-60
2021/12/15 16:01:55;;;;;;;41.90;24.63;;;;;;;9.62;100.00;103990.63;10544049;28;20404;-60
2021/12/15 16:06:57;;;;;;;39.60;26.95;;;;;;;9.61;100.00;103994.97;10543533;28;20048;-59
2021/12/15 16:12:02;;;;;;;38.55;26.08;;;;;;;9.69;100.00;103987.09;10543639;28;20420;-59
2021/12/15 16:17:13;;;;;;;42.53;28.50;;;;;;;9.77;100.00;104014.13;10542561;28;20054;-59
2021/12/15 16:27:49;;;;;;;47.35;32.40;;;;;;;9.48;100.00;103986.28;10543772;28;20048;-58
2021/12/15 16:32:56;;;;;;;46.97;33.28;;;;;;;9.71;100.00;104010.66;10542925;28;20048;-60
2021/12/15 16:38:30;;;;;;;48.47;32.28;;;;;;;9.66;100.00;104024.59;10543345;28;20048;-59
2021/12/15 16:44:01;;;;;;;51.80;34.72;;;;;;;9.53;100.00;104004.59;10543182;28;20060;-60
2021/12/15 16:49:09;;;;;;;53.55;35.80;;;;;;;9.69;100.00;104021.13;10542891;28;20113;-62
2021/12/15 16:54:14;;;;;;;49.85;34.83;;;;;;;9.65;100.00;104016.78;10542522;28;20071;-59
2021/12/15 16:59:26;;;;;;;56.40;36.45;;;;;;;9.59;100.00;104001.94;10541736;28;20052;-60
2021/12/15 17:04:36;;;;;;;53.90;36.00;;;;;;;9.67;100.00;104028.13;10540809;28;20055;-61
2021/12/15 17:09:41;;;;;;;58.35;37.30;;;;;;;9.58;100.00;104023.78;10540568;28;20048;-60
2021/12/15 17:14:48;;;;;;;45.95;32.20;;;;;;;9.73;100.00;104033.31;10540033;28;20048;-61
2021/12/15 17:19:50;;;;;;;53.03;36.17;;;;;;;9.78;100.00;104042.03;10541108;28;20059;-60
2021/12/15 17:24:52;;;;;;;57.55;35.78;;;;;;;9.69;100.00;104054.28;10540873;28;20403;-61
2021/12/15 17:29:55;;;;;;;52.92;36.45;;;;;;;9.60;100.00;104036.81;10540982;28;20131;-61
2021/12/15 17:34:57;;;;;;;62.53;40.20;;;;;;;9.53;100.00;104063.88;10540480;28;20056;-60
2021/12/15 17:40:00;;;;;;;52.22;34.85;;;;;;;9.61;100.00;104055.13;10541376;28;20048;-61
2021/12/15 17:45:12;;;;;;;59.47;39.50;;;;;;;9.53;100.00;104038.59;10540273;28;20431;-60
2021/12/15 17:50:24;;;;;;;53.42;38.97;;;;;;;9.45;100.00;104022.91;10540858;28;20055;-60
2021/12/15 17:55:45;;;;;;;55.03;37.25;;;;;;;9.46;100.00;104035.13;10540334;28;20055;-59
2021/12/15 18:01:00;;;;;;;62.22;41.42;;;;;;;9.43;100.00;104018.53;10540778;28;20055;-59
2021/12/15 18:06:07;;;;;;;57.58;37.60;;;;;;;9.40;100.00;104029.03;10540073;28;20044;-59
2021/12/15 18:11:10;;;;;;;56.22;38.67;;;;;;;9.55;100.00;104031.63;10540712;28;20044;-59
2021/12/15 18:16:13;;;;;;;66.53;41.90;;;;;;;9.55;100.00;104046.41;10539710;28;20500;-60
2021/12/15 18:21:16;;;;;;;50.65;33.70;;;;;;;9.49;100.00;104032.47;10539529;28;20412;-58
2021/12/15 18:26:22;;;;;;;58.20;37.17;;;;;;;9.46;100.00;104042.97;10539871;28;20062;-59
2021/12/15 18:31:30;;;;;;;58.88;40.47;;;;;;;9.32;100.00;104034.25;10545034;28;20480;-60
2021/12/15 18:36:35;;;;;;;54.88;38.80;;;;;;;9.32;100.00;104063.00;10547723;28;20050;-59
2021/12/15 18:41:40;;;;;;;57.47;37.85;;;;;;;9.36;100.00;104053.41;10547523;28;20102;-60
2021/12/15 18:46:43;;;;;;;59.17;39.65;;;;;;;9.36;100.00;104064.75;10547637;28;20052;-59
2021/12/15 18:51:46;;;;;;;55.13;37.55;;;;;;;9.32;100.00;104076.09;10547663;28;20043;-59
2021/12/15 18:56:51;;;;;;;54.28;36.40;;;;;;;9.28;100.00;104056.06;10546877;28;20427;-60
2021/12/15 19:01:56;;;;;;;62.85;39.42;;;;;;;9.26;100.00;104063.91;10546741;28;20056;-59
2021/12/15 19:06:58;;;;;;;59.05;36.78;;;;;;;9.28;100.00;104090.03;10546678;28;20052;-59
2021/12/15 19:12:04;;;;;;;54.55;36.35;;;;;;;9.33;100.00;104088.31;10546535;28;20047;-59
2021/12/15 19:17:07;;;;;;;62.40;40.17;;;;;;;9.32;100.00;104090.91;10546372;28;20052;-59
2021/12/15 19:22:12;;;;;;;54.25;35.92;;;;;;;9.22;100.00;104058.66;10545852;28;20408;-61
2021/12/15 19:27:15;;;;;;;64.35;41.08;;;;;;;9.17;100.00;104078.69;10545937;28;20048;-59
2021/12/15 19:32:18;;;;;;;64.38;41.55;;;;;;;9.14;100.00;104084.78;10545362;28;20048;-59
2021/12/15 19:37:21;;;;;;;68.97;41.70;;;;;;;9.15;100.00;104080.44;10545658;28;20051;-60
2021/12/15 19:42:23;;;;;;;63.85;38.60;;;;;;;9.15;100.00;104076.06;10545023;28;20400;-60
2021/12/15 19:47:26;;;;;;;69.10;42.20;;;;;;;9.22;100.00;104103.97;10545412;28;20056;-59
2021/12/15 19:52:28;;;;;;;72.30;42.53;;;;;;;9.18;100.00;104090.88;10544561;28;20389;-59
2021/12/15 19:57:30;;;;;;;59.60;38.33;;;;;;;9.37;100.00;104097.03;10544544;28;20503;-61
2021/12/15 20:02:36;;;;;;;64.38;38.95;;;;;;;9.28;100.00;104101.38;10544395;28;20055;-59
2021/12/15 20:07:39;;;;;;;70.75;42.78;;;;;;;9.10;100.00;104107.44;10543617;28;20059;-58
2021/12/15 20:12:42;;;;;;;71.70;43.33;;;;;;;9.08;100.00;104095.25;10543913;28;20531;-60
2021/12/15 20:17:45;;;;;;;61.20;40.85;;;;;;;9.05;100.00;104113.53;10543957;28;20052;-59
2021/12/15 20:22:47;;;;;;;66.90;40.30;;;;;;;9.04;100.00;104110.03;10543938;28;20066;-59
2021/12/15 20:27:51;;;;;;;68.25;42.60;;;;;;;9.01;100.00;104115.28;10543329;28;20502;-59
2021/12/15 20:32:55;;;;;;;69.00;41.03;;;;;;;9.00;100.00;104105.69;10542937;28;20048;-59
2021/12/15 20:37:57;;;;;;;74.85;43.58;;;;;;;8.92;100.00;104107.41;10543501;28;20048;-59
2021/12/15 20:43:01;;;;;;;70.63;40.60;;;;;;;9.00;100.00;104125.72;10542639;28;20059;-59
2021/12/15 20:48:04;;;;;;;64.60;38.67;;;;;;;8.92;100.00;104129.16;10542041;28;20059;-60
2021/12/15 20:53:10;;;;;;;67.05;38.38;;;;;;;8.97;100.00;104141.38;10540594;28;20052;-60
2021/12/15 20:58:12;;;;;;;74.63;43.17;;;;;;;8.85;100.00;104129.16;10541071;28;20446;-60
2021/12/15 21:03:16;;;;;;;72.55;42.55;;;;;;;8.94;100.00;104121.34;10541871;28;20518;-60
2021/12/15 21:08:22;;;;;;;68.20;37.78;;;;;;;8.94;100.00;104129.16;10542545;28;20052;-59
2021/12/15 21:13:25;;;;;;;69.10;40.58;;;;;;;8.87;100.00;104137.88;10542059;28;20044;-59
2021/12/15 21:18:28;;;;;;;60.60;37.25;;;;;;;8.96;100.00;104127.47;10542071;28;20051;-59
2021/12/15 21:23:30;;;;;;;70.47;41.00;;;;;;;8.78;100.00;104127.41;10541251;28;20131;-60
2021/12/15 21:28:37;;;;;;;73.97;41.83;;;;;;;8.85;100.00;104124.78;10541029;28;20480;-59
2021/12/15 21:33:40;;;;;;;58.63;35.67;;;;;;;8.88;100.00;104119.59;10540696;28;20400;-59
2021/12/15 21:38:43;;;;;;;72.72;41.78;;;;;;;8.79;100.00;104105.63;10540709;28;20522;-59
2021/12/15 21:43:46;;;;;;;73.43;40.28;;;;;;;8.64;100.00;104111.66;10541254;28;20044;-58
2021/12/15 21:48:49;;;;;;;70.38;41.50;;;;;;;8.79;100.00;104121.28;10540835;28;20063;-58
2021/12/15 21:53:52;;;;;;;72.63;40.00;;;;;;;8.74;100.00;104126.50;10540435;28;20131;-59
2021/12/15 21:58:54;;;;;;;66.53;38.03;;;;;;;8.86;100.00;104125.66;10540222;28;20512;-58
2021/12/15 22:03:58;;;;;;;76.38;42.40;;;;;;;8.90;100.00;104140.50;10539005;28;20502;-58
2021/12/15 22:09:02;;;;;;;81.57;44.30;;;;;;;8.96;100.00;104155.31;10540258;28;20051;-58
2021/12/15 22:14:05;;;;;;;74.85;42.75;;;;;;;8.90;100.00;104146.59;10539784;28;20048;-60
2021/12/15 22:19:11;;;;;;;84.72;45.63;;;;;;;8.93;100.00;104151.84;10540039;28;20048;-58
2021/12/15 22:24:18;;;;;;;86.00;46.83;;;;;;;8.86;100.00;104159.63;10539489;28;20048;-60
2021/12/15 22:29:27;;;;;;;91.53;45.75;;;;;;;8.91;100.00;104150.97;10539679;28;20071;-58
2021/12/15 22:34:30;;;;;;;76.22;42.20;;;;;;;8.99;100.00;104153.56;10539557;28;20048;-58
2021/12/15 22:39:32;;;;;;;77.00;42.05;;;;;;;8.95;100.00;104164.91;10538122;28;20055;-58
2021/12/15 22:44:36;;;;;;;89.00;44.72;;;;;;;8.79;100.00;104153.50;10539107;28;20123;-59
2021/12/15 22:49:39;;;;;;;99.85;47.58;;;;;;;8.77;100.00;104154.38;10520859;28;20052;-59
2021/12/15 22:54:41;;;;;;;90.68;46.15;;;;;;;8.74;100.00;104161.34;10538733;28;20055;-58
2021/12/15 22:59:47;;;;;;;87.50;45.97;;;;;;;8.93;100.00;104170.13;10539141;28;20071;-58
2021/12/15 23:04:52;;;;;;;101.30;50.05;;;;;;;8.78;100.00;104177.03;10538902;28;20048;-58
2021/12/15 23:09:56;;;;;;;90.90;47.08;;;;;;;8.77;100.00;104163.09;10538936;28;20074;-58
2021/12/15 23:15:02;;;;;;;97.65;47.97;;;;;;;8.73;100.00;104179.63;10539542;28;20044;-59
2021/12/15 23:20:11;;;;;;;93.72;48.83;;;;;;;8.72;100.00;104167.41;10546318;28;20055;-58
2021/12/15 23:25:16;;;;;;;96.63;48.35;;;;;;;8.69;100.00;104159.56;10545712;28;20534;-58
2021/12/15 23:30:20;;;;;;;96.93;50.25;;;;;;;8.63;100.00;104167.41;10545634;28;20040;-58
